createdAt,value
2019-04-25T00:00:44.601Z,"  71.54"
2019-04-25T00:01:44.766Z,"  71.21"
2019-04-25T00:02:44.783Z,"  71.39"
2019-04-25T00:03:44.769Z,"  71.46"
2019-04-25T00:04:45.006Z,"  71.18"
2019-04-25T00:05:44.761Z,"  71.51"
2019-04-25T00:06:44.975Z,"  71.66"
2019-04-25T00:07:44.958Z,"  71.68"
2019-04-25T00:08:45.235Z,"  71.43"
2019-04-25T00:09:45.246Z,"  71.50"
2019-04-25T00:10:45.373Z,"  71.58"
2019-04-25T00:11:46.559Z,"  71.81"
2019-04-25T00:12:44.647Z,"  72.08"
2019-04-25T00:13:44.626Z,"  71.68"
2019-04-25T00:14:44.585Z,"  71.69"
2019-04-25T00:15:45.961Z,"  71.30"
2019-04-25T00:16:45.193Z,"  72.13"
2019-04-25T00:17:44.613Z,"  71.81"
2019-04-25T00:18:44.589Z,"  71.90"
2019-04-25T00:19:44.597Z,"  71.83"
2019-04-25T00:20:44.822Z,"  71.77"
2019-04-25T00:21:44.607Z,"  71.66"
2019-04-25T00:22:44.864Z,"  71.82"
2019-04-25T00:23:44.980Z,"  71.70"
2019-04-25T00:24:45.133Z,"  71.37"
2019-04-25T00:25:45.905Z,"  71.43"
2019-04-25T00:26:45.170Z,"  71.60"
2019-04-25T00:27:45.989Z,"  71.99"
2019-04-25T00:28:45.422Z,"  71.97"
2019-04-25T00:29:45.738Z,"  72.23"
2019-04-25T00:30:44.685Z,"  71.89"
2019-04-25T00:31:45.096Z,"  71.95"
2019-04-25T00:32:45.341Z,"  71.81"
2019-04-25T00:33:45.311Z,"  71.78"
2019-04-25T00:34:45.576Z,"  71.98"
2019-04-25T00:35:45.730Z,"  72.42"
2019-04-25T00:36:45.615Z,"  72.21"
2019-04-25T00:37:45.487Z,"  72.12"
2019-04-25T00:38:46.594Z,"  72.34"
2019-04-25T00:39:45.323Z,"  72.24"
2019-04-25T00:40:44.860Z,"  72.28"
2019-04-25T00:41:45.491Z,"  72.20"
2019-04-25T00:42:44.886Z,"  72.09"
2019-04-25T00:43:45.293Z,"  72.03"
2019-04-25T00:44:45.040Z,"  72.00"
2019-04-25T00:45:45.666Z,"  71.94"
2019-04-25T00:46:46.390Z,"  72.23"
2019-04-25T00:47:44.755Z,"  72.45"
2019-04-25T00:48:44.566Z,"  72.30"
2019-04-25T00:49:45.159Z,"  72.53"
2019-04-25T00:50:44.625Z,"  72.32"
2019-04-25T00:51:44.564Z,"  72.31"
2019-04-25T00:52:44.836Z,"  72.45"
2019-04-25T00:53:44.675Z,"  72.23"
2019-04-25T00:54:44.525Z,"  72.32"
2019-04-25T00:55:44.671Z,"  72.33"
2019-04-25T00:56:46.067Z,"  72.22"
2019-04-25T00:57:44.811Z,"  72.45"
2019-04-25T00:58:45.253Z,"  71.92"
2019-04-25T00:59:45.463Z,"  72.40"
2019-04-25T01:00:44.905Z,"  72.28"
2019-04-25T01:01:46.517Z,"  72.08"
2019-04-25T01:02:45.291Z,"  72.01"
2019-04-25T01:03:45.297Z,"  71.63"
2019-04-25T01:04:45.183Z,"  71.79"
2019-04-25T01:05:45.519Z,"  71.74"
2019-04-25T01:06:45.323Z,"  71.74"
2019-04-25T01:07:44.534Z,"  71.88"
2019-04-25T01:08:44.513Z,"  72.22"
2019-04-25T01:09:44.569Z,"  71.65"
2019-04-25T01:10:44.546Z,"  71.96"
2019-04-25T01:11:44.545Z,"  72.12"
2019-04-25T01:12:44.678Z,"  71.87"
2019-04-25T01:13:44.664Z,"  71.97"
2019-04-25T01:14:45.714Z,"  71.70"
2019-04-25T01:15:44.952Z,"  71.91"
2019-04-25T01:16:45.069Z,"  71.77"
2019-04-25T01:17:45.396Z,"  71.91"
2019-04-25T01:18:45.303Z,"  71.74"
2019-04-25T01:19:45.719Z,"  71.83"
2019-04-25T01:20:45.373Z,"  71.79"
2019-04-25T01:21:45.516Z,"  71.81"
2019-04-25T01:22:45.682Z,"  71.86"
2019-04-25T01:23:45.716Z,"  71.77"
2019-04-25T01:24:45.597Z,"  71.63"
2019-04-25T01:25:45.774Z,"  71.37"
2019-04-25T01:26:45.866Z,"  71.13"
2019-04-25T01:27:44.538Z,"  71.38"
2019-04-25T01:28:44.528Z,"  70.98"
2019-04-25T01:29:44.577Z,"  71.31"
2019-04-25T01:30:44.530Z,"  71.05"
2019-04-25T01:31:44.618Z,"  71.05"
2019-04-25T01:32:44.887Z,"  71.18"
2019-04-25T01:33:44.489Z,"  71.20"
2019-04-25T01:34:44.481Z,"  71.44"
2019-04-25T01:35:44.867Z,"  71.31"
2019-04-25T01:36:44.567Z,"  71.38"
2019-04-25T01:37:44.526Z,"  71.09"
2019-04-25T01:38:44.867Z,"  71.26"
2019-04-25T01:39:44.503Z,"  71.24"
2019-04-25T01:40:44.493Z,"  71.16"
2019-04-25T01:41:44.553Z,"  71.30"
2019-04-25T01:42:44.488Z,"  71.18"
2019-04-25T01:43:44.517Z,"  71.10"
2019-04-25T01:44:44.546Z,"  71.04"
2019-04-25T01:45:44.468Z,"  71.26"
2019-04-25T01:46:44.463Z,"  71.14"
2019-04-25T01:47:48.876Z,"  71.07"
2019-04-25T01:48:44.480Z,"  70.93"
2019-04-25T01:49:44.485Z,"  70.92"
2019-04-25T01:50:44.505Z,"  70.91"
2019-04-25T01:51:44.473Z,"  70.48"
2019-04-25T01:52:44.515Z,"  70.70"
2019-04-25T01:53:44.481Z,"  70.84"
2019-04-25T01:54:44.475Z,"  70.71"
2019-04-25T01:55:53.827Z,"  70.53"
2019-04-25T01:56:44.561Z,"  70.66"
2019-04-25T01:57:45.347Z,"  70.58"
2019-04-25T01:58:44.462Z,"  70.55"
2019-04-25T01:59:44.497Z,"  70.49"
2019-04-25T02:00:44.995Z,"  70.55"
2019-04-25T02:01:44.527Z,"  70.60"
2019-04-25T02:02:44.506Z,"  70.46"
2019-04-25T02:03:44.449Z,"  70.65"
2019-04-25T02:04:44.476Z,"  70.53"
2019-04-25T02:05:44.526Z,"  70.75"
2019-04-25T02:06:44.554Z,"  70.47"
2019-04-25T02:07:44.511Z,"  70.41"
2019-04-25T02:08:44.473Z,"  70.46"
2019-04-25T02:09:44.472Z,"  70.59"
2019-04-25T02:10:44.498Z,"  70.66"
2019-04-25T02:11:44.493Z,"  70.78"
2019-04-25T02:12:44.540Z,"  70.71"
2019-04-25T02:13:44.453Z,"  70.81"
2019-04-25T02:14:44.499Z,"  70.62"
2019-04-25T02:15:44.526Z,"  70.66"
2019-04-25T02:16:44.497Z,"  70.82"
2019-04-25T02:17:44.491Z,"  70.86"
2019-04-25T02:18:44.459Z,"  70.93"
2019-04-25T02:19:44.474Z,"  71.19"
2019-04-25T02:20:44.502Z,"  71.05"
2019-04-25T02:21:44.990Z,"  71.17"
2019-04-25T02:22:44.454Z,"  71.19"
2019-04-25T02:23:44.426Z,"  71.36"
2019-04-25T02:24:44.433Z,"  71.21"
2019-04-25T02:25:44.437Z,"  71.32"
2019-04-25T02:26:44.428Z,"  71.40"
2019-04-25T02:27:44.435Z,"  71.56"
2019-04-25T02:28:44.439Z,"  71.56"
2019-04-25T02:29:44.777Z,"  71.53"
2019-04-25T02:30:45.372Z,"  71.51"
2019-04-25T02:31:45.172Z,"  71.40"
2019-04-25T02:32:44.447Z,"  71.94"
2019-04-25T02:33:44.515Z,"  71.92"
2019-04-25T02:34:45.946Z,"  72.08"
2019-04-25T02:35:46.766Z,"  72.10"
2019-04-25T02:36:46.988Z,"  72.12"
2019-04-25T02:37:45.118Z,"  72.21"
2019-04-25T02:38:44.425Z,"  72.29"
2019-04-25T02:39:44.903Z,"  72.27"
2019-04-25T02:40:45.416Z,"  72.07"
2019-04-25T02:41:44.637Z,"  71.83"
2019-04-25T02:42:44.681Z,"  71.88"
2019-04-25T02:43:45.198Z,"  71.93"
2019-04-25T02:44:44.589Z,"  72.13"
2019-04-25T02:45:44.419Z,"  72.14"
2019-04-25T02:46:44.970Z,"  72.08"
2019-04-25T02:47:46.291Z,"  72.28"
2019-04-25T02:48:44.423Z,"  72.40"
2019-04-25T02:49:44.759Z,"  72.29"
2019-04-25T02:50:46.228Z,"  72.73"
2019-04-25T02:51:45.088Z,"  72.75"
2019-04-25T02:52:44.542Z,"  72.69"
2019-04-25T02:53:44.768Z,"  72.91"
2019-04-25T02:54:44.923Z,"  72.96"
2019-04-25T02:55:44.756Z,"  72.78"
2019-04-25T02:56:46.670Z,"  73.09"
2019-04-25T02:57:44.962Z,"  72.78"
2019-04-25T02:58:44.454Z,"  72.56"
2019-04-25T02:59:45.077Z,"  72.73"
2019-04-25T03:00:54.972Z,"  72.80"
2019-04-25T03:01:44.612Z,"  72.77"
2019-04-25T03:02:44.633Z,"  72.66"
2019-04-25T03:03:44.947Z,"  72.68"
2019-04-25T03:04:44.779Z,"  72.92"
2019-04-25T03:05:47.186Z,"  72.61"
2019-04-25T03:06:45.273Z,"  73.05"
2019-04-25T03:07:44.675Z,"  72.73"
2019-04-25T03:08:45.029Z,"  72.89"
2019-04-25T03:09:45.113Z,"  72.97"
2019-04-25T03:10:44.526Z,"  73.09"
2019-04-25T03:11:45.038Z,"  73.43"
2019-04-25T03:12:44.717Z,"  73.57"
2019-04-25T03:13:44.419Z,"  73.36"
2019-04-25T03:14:44.719Z,"  73.12"
2019-04-25T03:15:44.459Z,"  73.36"
2019-04-25T03:16:44.987Z,"  73.31"
2019-04-25T03:17:44.602Z,"  73.13"
2019-04-25T03:18:44.424Z,"  73.45"
2019-04-25T03:19:44.375Z,"  73.02"
2019-04-25T03:20:45.207Z,"  73.31"
2019-04-25T03:21:45.191Z,"  73.14"
2019-04-25T03:22:44.611Z,"  73.09"
2019-04-25T03:23:46.370Z,"  73.18"
2019-04-25T03:24:45.852Z,"  73.26"
2019-04-25T03:25:44.378Z,"  73.16"
2019-04-25T03:26:44.416Z,"  73.09"
2019-04-25T03:27:44.341Z,"  73.38"
2019-04-25T03:28:44.354Z,"  73.33"
2019-04-25T03:29:45.743Z,"  73.17"
2019-04-25T03:30:45.022Z,"  73.38"
2019-04-25T03:31:45.135Z,"  73.31"
2019-04-25T03:32:45.006Z,"  73.36"
2019-04-25T03:33:45.970Z,"  73.43"
2019-04-25T03:34:44.318Z,"  73.77"
2019-04-25T03:35:44.321Z,"  73.78"
2019-04-25T03:36:44.389Z,"  73.51"
2019-04-25T03:37:44.357Z,"  73.54"
2019-04-25T03:38:44.351Z,"  73.48"
2019-04-25T03:39:44.353Z,"  73.78"
2019-04-25T03:40:44.335Z,"  74.08"
2019-04-25T03:41:45.553Z,"  74.19"
2019-04-25T03:42:44.368Z,"  74.22"
2019-04-25T03:43:44.340Z,"  73.98"
2019-04-25T03:44:44.305Z,"  73.88"
2019-04-25T03:45:45.311Z,"  74.25"
2019-04-25T03:46:44.355Z,"  73.84"
2019-04-25T03:47:46.209Z,"  73.68"
2019-04-25T03:48:44.642Z,"  74.14"
2019-04-25T03:49:44.305Z,"  73.86"
2019-04-25T03:50:44.399Z,"  74.27"
2019-04-25T03:51:44.373Z,"  74.13"
2019-04-25T03:52:44.348Z,"  73.98"
2019-04-25T03:53:44.356Z,"  74.34"
2019-04-25T03:54:44.330Z,"  74.15"
2019-04-25T03:55:44.453Z,"  74.11"
2019-04-25T03:56:53.287Z,"  74.50"
2019-04-25T03:57:44.447Z,"  74.56"
2019-04-25T03:58:44.390Z,"  74.51"
2019-04-25T03:59:44.333Z,"  74.40"
2019-04-25T04:00:44.796Z,"  74.45"
2019-04-25T04:01:44.297Z,"  74.77"
2019-04-25T04:02:44.474Z,"  74.69"
2019-04-25T04:03:44.296Z,"  74.80"
2019-04-25T04:04:44.361Z,"  74.47"
2019-04-25T04:05:44.302Z,"  74.80"
2019-04-25T04:06:44.270Z,"  74.81"
2019-04-25T04:07:44.374Z,"  74.78"
2019-04-25T04:08:44.423Z,"  74.44"
2019-04-25T04:09:44.526Z,"  74.54"
2019-04-25T04:10:44.281Z,"  74.46"
2019-04-25T04:11:44.272Z,"  74.53"
2019-04-25T04:12:44.432Z,"  74.38"
2019-04-25T04:13:44.300Z,"  74.66"
2019-04-25T04:14:44.299Z,"  74.59"
2019-04-25T04:15:44.265Z,"  74.40"
2019-04-25T04:16:44.432Z,"  74.06"
2019-04-25T04:17:44.295Z,"  73.77"
2019-04-25T04:18:44.340Z,"  73.95"
2019-04-25T04:19:45.236Z,"  74.06"
2019-04-25T04:20:44.335Z,"  74.20"
2019-04-25T04:21:44.327Z,"  73.96"
2019-04-25T04:22:44.270Z,"  74.01"
2019-04-25T04:23:44.318Z,"  74.00"
2019-04-25T04:24:44.358Z,"  73.80"
2019-04-25T04:25:44.258Z,"  73.98"
2019-04-25T04:26:44.274Z,"  74.17"
2019-04-25T04:27:44.382Z,"  74.07"
2019-04-25T04:28:44.281Z,"  73.51"
2019-04-25T04:29:44.265Z,"  73.53"
2019-04-25T04:30:45.388Z,"  73.57"
2019-04-25T04:31:44.294Z,"  73.57"
2019-04-25T04:32:44.282Z,"  73.11"
2019-04-25T04:33:44.289Z,"  73.08"
2019-04-25T04:34:45.492Z,"  73.19"
2019-04-25T04:35:44.269Z,"  73.35"
2019-04-25T04:36:46.469Z,"  73.13"
2019-04-25T04:37:44.249Z,"  72.80"
2019-04-25T04:38:44.347Z,"  72.87"
2019-04-25T04:39:44.243Z,"  72.86"
2019-04-25T04:40:44.331Z,"  72.75"
2019-04-25T04:41:44.323Z,"  72.98"
2019-04-25T04:42:44.278Z,"  73.04"
2019-04-25T04:43:44.315Z,"  73.26"
2019-04-25T04:44:44.289Z,"  73.50"
2019-04-25T04:45:45.569Z,"  73.51"
2019-04-25T04:46:44.271Z,"  73.38"
2019-04-25T04:47:44.221Z,"  73.71"
2019-04-25T04:48:44.255Z,"  73.52"
2019-04-25T04:49:44.262Z,"  73.89"
2019-04-25T04:50:44.247Z,"  73.78"
2019-04-25T04:51:44.466Z,"  74.04"
2019-04-25T04:52:44.974Z,"  73.95"
2019-04-25T04:53:44.342Z,"  74.14"
2019-04-25T04:54:44.265Z,"  74.25"
2019-04-25T04:55:44.322Z,"  74.24"
2019-04-25T04:56:44.302Z,"  74.43"
2019-04-25T04:57:44.881Z,"  74.43"
2019-04-25T04:58:44.257Z,"  74.40"
2019-04-25T04:59:44.308Z,"  74.59"
2019-04-25T05:00:44.477Z,"  74.48"
2019-04-25T05:01:44.952Z,"  74.48"
2019-04-25T05:02:44.293Z,"  74.32"
2019-04-25T05:03:44.380Z,"  74.57"
2019-04-25T05:04:44.218Z,"  74.54"
2019-04-25T05:05:44.272Z,"  74.47"
2019-04-25T05:06:44.239Z,"  74.82"
2019-04-25T05:07:44.237Z,"  74.86"
2019-04-25T05:08:44.225Z,"  74.63"
2019-04-25T05:09:44.348Z,"  75.15"
2019-04-25T05:10:44.274Z,"  74.99"
2019-04-25T05:11:44.322Z,"  74.87"
2019-04-25T05:12:44.222Z,"  74.75"
2019-04-25T05:13:44.469Z,"  74.75"
2019-04-25T05:14:44.482Z,"  74.39"
2019-04-25T05:15:44.660Z,"  74.33"
2019-04-25T05:16:44.226Z,"  74.17"
2019-04-25T05:17:44.221Z,"  74.44"
2019-04-25T05:18:44.226Z,"  74.45"
2019-04-25T05:19:44.224Z,"  73.99"
2019-04-25T05:20:44.186Z,"  74.35"
2019-04-25T05:21:45.609Z,"  73.96"
2019-04-25T05:22:44.592Z,"  74.31"
2019-04-25T05:23:44.621Z,"  74.16"
2019-04-25T05:24:44.182Z,"  74.18"
2019-04-25T05:25:44.280Z,"  73.79"
2019-04-25T05:26:44.292Z,"  73.98"
2019-04-25T05:27:59.072Z,"  74.21"
2019-04-25T05:28:44.517Z,"  74.16"
2019-04-25T05:29:44.210Z,"  74.31"
2019-04-25T05:30:44.170Z,"  73.88"
2019-04-25T05:31:45.612Z,"  73.38"
2019-04-25T05:32:44.264Z,"  73.07"
2019-04-25T05:33:44.191Z,"  72.99"
2019-04-25T05:34:46.127Z,"  72.51"
2019-04-25T05:35:44.402Z,"  72.82"
2019-04-25T05:36:44.215Z,"  72.74"
2019-04-25T05:37:44.233Z,"  72.78"
2019-04-25T05:38:45.187Z,"  72.83"
2019-04-25T05:39:44.149Z,"  72.61"
2019-04-25T05:40:44.200Z,"  72.47"
2019-04-25T05:41:44.278Z,"  72.45"
2019-04-25T05:42:44.362Z,"  72.23"
2019-04-25T05:43:44.177Z,"  71.81"
2019-04-25T05:44:44.210Z,"  71.90"
2019-04-25T05:45:44.194Z,"  71.94"
2019-04-25T05:46:45.311Z,"  71.85"
2019-04-25T05:47:44.327Z,"  71.82"
2019-04-25T05:48:44.162Z,"  71.76"
2019-04-25T05:49:44.170Z,"  71.78"
2019-04-25T05:50:44.162Z,"  72.00"
2019-04-25T05:51:44.193Z,"  71.76"
2019-04-25T05:52:45.978Z,"  71.78"
2019-04-25T05:53:44.191Z,"  71.74"
2019-04-25T05:54:44.344Z,"  71.76"
2019-04-25T05:55:44.217Z,"  71.61"
2019-04-25T05:56:44.570Z,"  71.55"
2019-04-25T05:57:49.726Z,"  71.36"
2019-04-25T05:58:44.157Z,"  71.60"
2019-04-25T05:59:46.535Z,"  71.28"
2019-04-25T06:00:46.957Z,"  71.22"
2019-04-25T06:01:44.158Z,"  71.25"
2019-04-25T06:02:46.124Z,"  71.07"
2019-04-25T06:03:44.183Z,"  71.27"
2019-04-25T06:04:44.186Z,"  71.06"
2019-04-25T06:05:44.135Z,"  71.15"
2019-04-25T06:06:44.650Z,"  71.40"
2019-04-25T06:07:44.217Z,"  71.39"
2019-04-25T06:08:44.212Z,"  71.40"
2019-04-25T06:09:44.445Z,"  71.30"
2019-04-25T06:10:45.236Z,"  71.77"
2019-04-25T06:11:44.198Z,"  71.08"
2019-04-25T06:12:44.195Z,"  70.64"
2019-04-25T06:13:45.029Z,"  71.13"
2019-04-25T06:14:44.119Z,"  70.83"
2019-04-25T06:15:44.187Z,"  70.55"
2019-04-25T06:16:44.250Z,"  70.57"
2019-04-25T06:17:44.473Z,"  70.46"
2019-04-25T06:18:44.373Z,"  70.86"
2019-04-25T06:19:44.119Z,"  70.87"
2019-04-25T06:20:44.336Z,"  71.02"
2019-04-25T06:21:44.126Z,"  71.29"
2019-04-25T06:22:44.293Z,"  71.36"
2019-04-25T06:23:45.967Z,"  70.79"
2019-04-25T06:24:44.478Z,"  70.96"
2019-04-25T06:25:44.160Z,"  70.96"
2019-04-25T06:26:44.134Z,"  70.66"
2019-04-25T06:27:56.311Z,"  70.38"
2019-04-25T06:28:53.760Z,"  70.79"
2019-04-25T06:29:44.121Z,"  70.49"
2019-04-25T06:30:44.354Z,"  70.20"
2019-04-25T06:31:44.186Z,"  70.32"
2019-04-25T06:32:44.378Z,"  70.34"
2019-04-25T06:33:44.199Z,"  71.06"
2019-04-25T06:34:44.425Z,"  70.61"
2019-04-25T06:35:44.257Z,"  70.56"
2019-04-25T06:36:44.126Z,"  70.76"
2019-04-25T06:37:44.097Z,"  70.11"
2019-04-25T06:38:44.394Z,"  70.50"
2019-04-25T06:39:44.323Z,"  70.42"
2019-04-25T06:40:44.147Z,"  70.78"
2019-04-25T06:41:44.227Z,"  70.69"
2019-04-25T06:42:46.540Z,"  70.54"
2019-04-25T06:43:44.343Z,"  70.20"
2019-04-25T06:44:44.085Z,"  70.28"
2019-04-25T06:45:44.258Z,"  70.37"
2019-04-25T06:46:44.197Z,"  70.08"
2019-04-25T06:47:44.328Z,"  70.16"
2019-04-25T06:48:45.539Z,"  70.01"
2019-04-25T06:49:44.106Z,"  70.01"
2019-04-25T06:50:44.137Z,"  69.88"
2019-04-25T06:51:46.084Z,"  69.96"
2019-04-25T06:52:44.051Z,"  70.18"
2019-04-25T06:53:44.119Z,"  70.06"
2019-04-25T06:54:44.079Z,"  70.01"
2019-04-25T06:55:45.019Z,"  69.38"
2019-04-25T06:56:44.079Z,"  69.93"
2019-04-25T06:57:44.175Z,"  69.67"
2019-04-25T06:58:44.195Z,"  69.34"
2019-04-25T06:59:44.068Z,"  69.15"
2019-04-25T07:00:57.596Z,"  69.47"
2019-04-25T07:01:44.231Z,"  69.21"
2019-04-25T07:02:44.278Z,"  68.87"
2019-04-25T07:03:44.249Z,"  68.93"
2019-04-25T07:04:45.699Z,"  68.85"
2019-04-25T07:05:44.112Z,"  69.08"
2019-04-25T07:06:45.480Z,"  69.52"
2019-04-25T07:07:45.428Z,"  68.64"
2019-04-25T07:08:44.778Z,"  68.75"
2019-04-25T07:09:44.115Z,"  69.06"
2019-04-25T07:10:44.598Z,"  68.92"
2019-04-25T07:11:44.208Z,"  68.78"
2019-04-25T07:12:44.404Z,"  68.93"
2019-04-25T07:13:44.035Z,"  68.51"
2019-04-25T07:14:44.113Z,"  69.07"
2019-04-25T07:15:44.065Z,"  68.48"
2019-04-25T07:16:44.086Z,"  68.17"
2019-04-25T07:17:45.696Z,"  68.19"
2019-04-25T07:18:44.091Z,"  68.66"
2019-04-25T07:19:44.201Z,"  68.18"
2019-04-25T07:20:45.308Z,"  67.99"
2019-04-25T07:21:44.430Z,"  67.70"
2019-04-25T07:22:44.133Z,"  67.87"
2019-04-25T07:23:46.303Z,"  67.57"
2019-04-25T07:24:44.108Z,"  68.18"
2019-04-25T07:25:44.070Z,"  67.46"
2019-04-25T07:26:44.270Z,"  67.52"
2019-04-25T07:27:44.792Z,"  67.46"
2019-04-25T07:28:44.102Z,"  67.74"
2019-04-25T07:29:44.079Z,"  67.61"
2019-04-25T07:30:50.225Z,"  67.71"
2019-04-25T07:31:44.308Z,"  67.17"
2019-04-25T07:32:44.061Z,"  67.13"
2019-04-25T07:33:44.089Z,"  67.17"
2019-04-25T07:34:43.993Z,"  67.01"
2019-04-25T07:35:44.022Z,"  67.17"
2019-04-25T07:36:45.541Z,"  67.30"
2019-04-25T07:37:44.222Z,"  66.82"
2019-04-25T07:38:44.798Z,"  67.93"
2019-04-25T07:39:44.277Z,"  67.46"
2019-04-25T07:40:44.055Z,"  67.17"
2019-04-25T07:41:44.223Z,"  67.35"
2019-04-25T07:42:44.011Z,"  66.99"
2019-04-25T07:43:44.015Z,"  67.14"
2019-04-25T07:44:52.014Z,"  67.12"
2019-04-25T07:45:44.084Z,"  67.53"
2019-04-25T07:46:44.031Z,"  67.20"
2019-04-25T07:47:44.232Z,"  67.59"
2019-04-25T07:48:43.998Z,"  67.05"
2019-04-25T07:49:44.029Z,"  67.32"
2019-04-25T07:50:44.035Z,"  67.41"
2019-04-25T07:51:45.364Z,"  66.73"
2019-04-25T07:52:44.360Z,"  66.96"
2019-04-25T07:53:44.011Z,"  66.92"
2019-04-25T07:54:44.094Z,"  66.83"
2019-04-25T07:55:43.957Z,"  66.61"
2019-04-25T07:56:43.998Z,"  66.84"
2019-04-25T07:57:44.361Z,"  67.22"
2019-04-25T07:58:49.260Z,"  67.41"
2019-04-25T07:59:44.058Z,"  67.52"
2019-04-25T08:00:44.072Z,"  66.41"
2019-04-25T08:01:44.001Z,"  66.06"
2019-04-25T08:02:44.065Z,"  66.22"
2019-04-25T08:03:44.026Z,"  66.38"
2019-04-25T08:04:44.331Z,"  66.00"
2019-04-25T08:05:44.070Z,"  65.87"
2019-04-25T08:06:44.650Z,"  65.70"
2019-04-25T08:07:43.975Z,"  65.89"
2019-04-25T08:08:44.049Z,"  65.50"
2019-04-25T08:09:44.344Z,"  65.58"
2019-04-25T08:10:45.354Z,"  65.03"
2019-04-25T08:11:44.037Z,"  65.30"
2019-04-25T08:12:44.124Z,"  64.45"
2019-04-25T08:13:43.950Z,"  64.44"
2019-04-25T08:14:45.805Z,"  64.67"
2019-04-25T08:15:44.022Z,"  64.93"
2019-04-25T08:16:44.293Z,"  64.72"
2019-04-25T08:17:44.185Z,"  64.33"
2019-04-25T08:18:43.967Z,"  63.99"
2019-04-25T08:19:44.319Z,"  64.16"
2019-04-25T08:20:44.018Z,"  64.01"
2019-04-25T08:21:45.109Z,"  64.14"
2019-04-25T08:22:55.821Z,"  64.19"
2019-04-25T08:23:44.007Z,"  63.49"
2019-04-25T08:24:44.102Z,"  63.68"
2019-04-25T08:25:44.202Z,"  64.32"
2019-04-25T08:26:43.980Z,"  63.05"
2019-04-25T08:27:45.061Z,"  62.78"
2019-04-25T08:28:55.025Z,"  62.89"
2019-04-25T08:29:45.540Z,"  62.68"
2019-04-25T08:30:43.982Z,"  62.44"
2019-04-25T08:31:45.213Z,"  61.86"
2019-04-25T08:32:44.120Z,"  62.06"
2019-04-25T08:33:46.598Z,"  61.84"
2019-04-25T08:34:44.721Z,"  62.43"
2019-04-25T08:36:03.040Z,"  62.31"
2019-04-25T08:36:45.594Z,"  61.94"
2019-04-25T08:37:44.175Z,"  62.36"
2019-04-25T08:38:44.731Z,"  62.22"
2019-04-25T08:39:45.106Z,"  60.68"
2019-04-25T08:40:44.166Z,"  61.82"
2019-04-25T08:41:45.580Z,"  61.56"
2019-04-25T08:42:44.835Z,"  61.41"
2019-04-25T08:43:45.494Z,"  61.51"
2019-04-25T08:44:44.892Z,"  61.47"
2019-04-25T08:45:44.273Z,"  61.15"
2019-04-25T08:46:44.620Z,"  61.27"
2019-04-25T08:47:44.006Z,"  61.31"
2019-04-25T08:48:44.404Z,"  61.60"
2019-04-25T08:49:45.728Z,"  61.11"
2019-04-25T08:50:44.483Z,"  59.94"
2019-04-25T08:51:44.515Z,"  60.73"
2019-04-25T08:52:44.280Z,"  60.91"
2019-04-25T08:53:45.041Z,"  61.02"
2019-04-25T08:54:45.727Z,"  60.56"
2019-04-25T08:55:45.579Z,"  60.56"
2019-04-25T08:56:44.126Z,"  60.80"
2019-04-25T08:57:44.525Z,"  60.20"
2019-04-25T08:58:44.582Z,"  60.29"
2019-04-25T08:59:49.394Z,"  59.99"
2019-04-25T09:00:44.700Z,"  59.27"
2019-04-25T09:02:44.808Z,"  59.44"
2019-04-25T09:03:44.350Z,"  59.93"
2019-04-25T09:04:44.601Z,"  59.81"
2019-04-25T09:05:45.882Z,"  58.84"
2019-04-25T09:06:44.287Z,"  58.87"
2019-04-25T09:07:44.510Z,"  58.85"
2019-04-25T09:08:46.360Z,"  58.55"
2019-04-25T09:09:45.115Z,"  58.66"
2019-04-25T09:10:44.879Z,"  59.27"
2019-04-25T09:11:46.895Z,"  59.42"
2019-04-25T09:12:44.302Z,"  58.66"
2019-04-25T09:13:44.971Z,"  58.98"
2019-04-25T09:14:45.077Z,"  58.90"
2019-04-25T09:15:45.572Z,"  59.68"
2019-04-25T09:16:44.870Z,"  59.46"
2019-04-25T09:17:44.501Z,"  58.11"
2019-04-25T09:18:44.355Z,"  58.22"
2019-04-25T09:19:44.436Z,"  56.67"
2019-04-25T09:20:46.489Z,"  56.26"
2019-04-25T09:21:48.117Z,"  56.44"
2019-04-25T09:22:44.591Z,"  56.95"
2019-04-25T09:23:44.843Z,"  55.62"
2019-04-25T09:24:44.432Z,"  55.71"
2019-04-25T09:25:45.959Z,"  55.48"
2019-04-25T09:26:45.296Z,"  54.74"
2019-04-25T09:27:45.530Z,"  54.01"
2019-04-25T09:28:45.423Z,"  54.53"
2019-04-25T09:29:45.234Z,"  54.96"
2019-04-25T09:30:44.859Z,"  54.28"
2019-04-25T09:31:45.140Z,"  54.89"
2019-04-25T09:32:44.579Z,"  54.08"
2019-04-25T09:33:45.534Z,"  53.99"
2019-04-25T09:34:43.861Z,"  54.12"
2019-04-25T09:35:45.710Z,"  54.06"
2019-04-25T09:36:44.973Z,"  52.51"
2019-04-25T09:37:44.946Z,"  54.00"
2019-04-25T09:38:46.978Z,"  52.47"
2019-04-25T09:39:44.358Z,"  52.71"
2019-04-25T09:40:44.529Z,"  53.51"
2019-04-25T09:41:44.756Z,"  52.07"
2019-04-25T09:42:45.073Z,"  51.95"
2019-04-25T09:43:45.602Z,"  52.43"
2019-04-25T09:44:44.209Z,"  52.70"
2019-04-25T09:45:44.863Z,"  52.84"
2019-04-25T09:46:46.519Z,"  52.53"
2019-04-25T09:47:44.836Z,"  52.87"
2019-04-25T09:48:44.605Z,"  53.12"
2019-04-25T09:49:44.844Z,"  53.19"
2019-04-25T09:50:45.109Z,"  51.67"
2019-04-25T09:51:44.591Z,"  52.43"
2019-04-25T09:52:44.368Z,"  51.47"
2019-04-25T09:53:49.604Z,"  51.87"
2019-04-25T09:54:44.892Z,"  51.35"
2019-04-25T09:55:46.819Z,"  50.80"
2019-04-25T09:56:45.107Z,"  50.63"
2019-04-25T09:57:44.607Z,"  51.22"
2019-04-25T09:58:46.999Z,"  51.03"
2019-04-25T09:59:45.057Z,"  51.43"
2019-04-25T10:00:44.841Z,"  50.22"
2019-04-25T10:01:44.820Z,"  50.78"
2019-04-25T10:02:44.575Z,"  50.35"
2019-04-25T10:03:44.506Z,"  51.95"
2019-04-25T10:04:45.225Z,"  50.44"
2019-04-25T10:05:44.699Z,"  50.31"
2019-04-25T10:06:45.003Z,"  50.39"
2019-04-25T10:07:46.216Z,"  51.24"
2019-04-25T10:08:45.379Z,"  50.53"
2019-04-25T10:09:44.732Z,"  50.36"
2019-04-25T10:10:44.640Z,"  50.83"
2019-04-25T10:11:45.065Z,"  49.31"
2019-04-25T10:12:47.445Z,"  49.44"
2019-04-25T10:13:44.785Z,"  47.85"
2019-04-25T10:14:45.240Z,"  48.15"
2019-04-25T10:15:44.738Z,"  47.73"
2019-04-25T10:16:44.485Z,"  48.49"
2019-04-25T10:17:44.993Z,"  49.08"
2019-04-25T10:18:44.625Z,"  49.13"
2019-04-25T10:19:43.803Z,"  48.19"
2019-04-25T10:20:45.217Z,"  47.18"
2019-04-25T10:21:43.887Z,"  46.60"
2019-04-25T10:22:44.583Z,"  45.46"
2019-04-25T10:23:45.382Z,"  45.29"
2019-04-25T10:24:56.505Z,"  46.25"
2019-04-25T10:25:44.177Z,"  45.16"
2019-04-25T10:26:45.119Z,"  45.37"
2019-04-25T10:27:46.461Z,"  44.91"
2019-04-25T10:28:44.162Z,"  45.02"
2019-04-25T10:29:52.756Z,"  45.35"
2019-04-25T10:30:43.757Z,"  45.43"
2019-04-25T10:31:44.331Z,"  45.27"
2019-04-25T10:32:44.274Z,"  45.47"
2019-04-25T10:33:45.570Z,"  45.43"
2019-04-25T10:34:45.145Z,"  44.35"
2019-04-25T10:35:52.059Z,"  45.23"
2019-04-25T10:36:45.293Z,"  45.25"
2019-04-25T10:37:45.321Z,"  43.93"
2019-04-25T10:38:46.274Z,"  43.45"
2019-04-25T10:39:44.715Z,"  43.45"
2019-04-25T10:40:45.156Z,"  44.25"
2019-04-25T10:41:46.097Z,"  43.56"
2019-04-25T10:42:46.500Z,"  44.62"
2019-04-25T10:43:44.017Z,"  45.22"
2019-04-25T10:44:45.782Z,"  44.49"
2019-04-25T10:45:44.775Z,"  45.50"
2019-04-25T10:46:46.868Z,"  45.82"
2019-04-25T10:47:44.291Z,"  46.18"
2019-04-25T10:48:44.051Z,"  45.76"
2019-04-25T10:49:44.967Z,"  46.30"
2019-04-25T10:50:45.204Z,"  46.38"
2019-04-25T10:51:44.667Z,"  45.82"
2019-04-25T10:52:45.518Z,"  45.14"
2019-04-25T10:53:45.627Z,"  43.49"
2019-04-25T10:54:45.250Z,"  44.09"
2019-04-25T10:55:43.753Z,"  43.15"
2019-04-25T10:56:45.692Z,"  43.60"
2019-04-25T10:57:45.507Z,"  42.67"
2019-04-25T10:58:45.685Z,"  44.31"
2019-04-25T10:59:57.914Z,"  43.47"
2019-04-25T11:00:46.109Z,"  43.32"
2019-04-25T11:01:45.057Z,"  42.89"
2019-04-25T11:02:45.296Z,"  42.92"
2019-04-25T11:03:44.545Z,"  42.94"
2019-04-25T11:04:44.577Z,"  41.93"
2019-04-25T11:05:43.775Z,"  42.43"
2019-04-25T11:06:45.366Z,"  42.30"
2019-04-25T11:07:44.485Z,"  42.25"
2019-04-25T11:08:43.746Z,"  41.86"
2019-04-25T11:09:45.200Z,"  41.98"
2019-04-25T11:10:44.452Z,"  41.18"
2019-04-25T11:11:43.742Z,"  42.27"
2019-04-25T11:12:44.319Z,"  41.63"
2019-04-25T11:13:45.280Z,"  40.96"
2019-04-25T11:14:44.307Z,"  40.34"
2019-04-25T11:15:44.873Z,"  40.11"
2019-04-25T11:16:45.293Z,"  40.81"
2019-04-25T11:17:45.836Z,"  39.57"
2019-04-25T11:18:45.028Z,"  39.06"
2019-04-25T11:19:44.556Z,"  39.31"
2019-04-25T11:20:44.605Z,"  38.63"
2019-04-25T11:21:45.637Z,"  38.56"
2019-04-25T11:22:44.837Z,"  39.50"
2019-04-25T11:23:46.951Z,"  38.41"
2019-04-25T11:24:43.848Z,"  38.85"
2019-04-25T11:25:45.252Z,"  38.76"